sensor_id;sensor_type;location;lat;lon;timestamp;pressure;altitude;pressure_sealevel;temperature;humidity
71938;BME280;59810;48.800;9.086;2022-07-29T00:00:10;97435.53;;;19.30;76.96
71938;BME280;59810;48.800;9.086;2022-07-29T00:02:38;97442.31;;;19.33;76.67
71938;BME280;59810;48.800;9.086;2022-07-29T00:05:08;97436.84;;;19.33;76.70
71938;BME280;59810;48.800;9.086;2022-07-29T00:07:33;97433.41;;;19.27;77.41
71938;BME280;59810;48.800;9.086;2022-07-29T00:09:59;97424.09;;;19.28;76.91
71938;BME280;59810;48.800;9.086;2022-07-29T00:12:25;97419.53;;;19.23;77.75
71938;BME280;59810;48.800;9.086;2022-07-29T00:14:54;97424.31;;;19.18;78.21
71938;BME280;59810;48.800;9.086;2022-07-29T00:17:23;97420.09;;;19.12;78.08
71938;BME280;59810;48.800;9.086;2022-07-29T00:19:49;97416.22;;;19.13;77.76
71938;BME280;59810;48.800;9.086;2022-07-29T00:22:14;97416.84;;;19.10;78.13
71938;BME280;59810;48.800;9.086;2022-07-29T00:24:40;97413.97;;;19.15;77.91
71938;BME280;59810;48.800;9.086;2022-07-29T00:27:05;97422.50;;;19.13;78.39
71938;BME280;59810;48.800;9.086;2022-07-29T00:29:30;97425.19;;;19.05;77.79
71938;BME280;59810;48.800;9.086;2022-07-29T00:31:56;97425.56;;;19.12;77.45
71938;BME280;59810;48.800;9.086;2022-07-29T00:34:21;97424.44;;;19.13;77.59
71938;BME280;59810;48.800;9.086;2022-07-29T00:37:05;97420.09;;;19.12;77.74
71938;BME280;59810;48.800;9.086;2022-07-29T00:39:30;97411.88;;;19.12;77.68
71938;BME280;59810;48.800;9.086;2022-07-29T00:41:56;97411.25;;;19.15;77.78
71938;BME280;59810;48.800;9.086;2022-07-29T00:44:24;97412.88;;;19.16;77.62
71938;BME280;59810;48.800;9.086;2022-07-29T00:46:49;97413.09;;;19.19;77.05
71938;BME280;59810;48.800;9.086;2022-07-29T00:49:17;97410.94;;;19.16;77.67
71938;BME280;59810;48.800;9.086;2022-07-29T00:51:43;97404.88;;;19.19;76.90
71938;BME280;59810;48.800;9.086;2022-07-29T00:54:09;97411.16;;;19.20;76.61
71938;BME280;59810;48.800;9.086;2022-07-29T00:56:34;97401.91;;;19.16;76.63
71938;BME280;59810;48.800;9.086;2022-07-29T00:59:04;97397.88;;;19.13;76.81
71938;BME280;59810;48.800;9.086;2022-07-29T01:01:30;97400.63;;;19.13;77.57
71938;BME280;59810;48.800;9.086;2022-07-29T01:03:55;97400.25;;;19.06;77.49
71938;BME280;59810;48.800;9.086;2022-07-29T01:06:20;97398.44;;;19.02;78.40
71938;BME280;59810;48.800;9.086;2022-07-29T01:08:47;97399.06;;;18.99;78.41
71938;BME280;59810;48.800;9.086;2022-07-29T01:11:14;97392.09;;;18.92;78.73
71938;BME280;59810;48.800;9.086;2022-07-29T01:13:41;97393.34;;;18.86;79.51
71938;BME280;59810;48.800;9.086;2022-07-29T01:16:17;97382.00;;;18.79;79.95
71938;BME280;59810;48.800;9.086;2022-07-29T01:18:46;97384.66;;;18.71;79.71
71938;BME280;59810;48.800;9.086;2022-07-29T01:21:38;97387.22;;;18.67;80.03
71938;BME280;59810;48.800;9.086;2022-07-29T01:24:39;97389.81;;;18.72;78.68
71938;BME280;59810;48.800;9.086;2022-07-29T01:29:56;97389.94;;;18.67;79.60
71938;BME280;59810;48.800;9.086;2022-07-29T01:32:27;97389.31;;;18.70;78.69
71938;BME280;59810;48.800;9.086;2022-07-29T01:35:05;97399.16;;;18.71;79.22
71938;BME280;59810;48.800;9.086;2022-07-29T01:37:40;97391.25;;;18.56;79.80
71938;BME280;59810;48.800;9.086;2022-07-29T01:40:17;97386.47;;;18.61;79.84
71938;BME280;59810;48.800;9.086;2022-07-29T01:42:49;97395.13;;;18.55;80.50
71938;BME280;59810;48.800;9.086;2022-07-29T01:45:18;97396.50;;;18.52;80.77
71938;BME280;59810;48.800;9.086;2022-07-29T01:48:06;97384.88;;;18.47;81.14
71938;BME280;59810;48.800;9.086;2022-07-29T01:50:58;97390.47;;;18.42;80.91
71938;BME280;59810;48.800;9.086;2022-07-29T01:53:34;97378.34;;;18.34;81.58
71938;BME280;59810;48.800;9.086;2022-07-29T01:56:01;97382.38;;;18.37;80.88
71938;BME280;59810;48.800;9.086;2022-07-29T01:58:29;97379.94;;;18.35;80.04
71938;BME280;59810;48.800;9.086;2022-07-29T02:00:57;97386.31;;;18.44;79.63
71938;BME280;59810;48.800;9.086;2022-07-29T02:03:24;97379.28;;;18.52;78.68
71938;BME280;59810;48.800;9.086;2022-07-29T02:05:52;97375.97;;;18.55;78.98
71938;BME280;59810;48.800;9.086;2022-07-29T02:08:19;97369.28;;;18.61;78.35
71938;BME280;59810;48.800;9.086;2022-07-29T02:10:47;97370.59;;;18.63;78.25
71938;BME280;59810;48.800;9.086;2022-07-29T02:13:14;97370.38;;;18.60;78.44
71938;BME280;59810;48.800;9.086;2022-07-29T02:15:42;97361.88;;;18.61;77.67
71938;BME280;59810;48.800;9.086;2022-07-29T02:18:17;97365.81;;;18.69;77.35
71938;BME280;59810;48.800;9.086;2022-07-29T02:20:48;97361.03;;;18.75;77.05
71938;BME280;59810;48.800;9.086;2022-07-29T02:23:17;97366.69;;;18.78;76.73
71938;BME280;59810;48.800;9.086;2022-07-29T02:25:43;97360.59;;;18.81;76.33
71938;BME280;59810;48.800;9.086;2022-07-29T02:28:11;97359.97;;;18.84;76.71
71938;BME280;59810;48.800;9.086;2022-07-29T02:30:40;97362.72;;;18.84;76.48
71938;BME280;59810;48.800;9.086;2022-07-29T02:33:08;97357.78;;;18.86;76.37
71938;BME280;59810;48.800;9.086;2022-07-29T02:35:35;97361.91;;;18.84;76.35
71938;BME280;59810;48.800;9.086;2022-07-29T02:38:03;97365.59;;;18.79;76.39
71938;BME280;59810;48.800;9.086;2022-07-29T02:40:48;97369.44;;;18.78;76.84
71938;BME280;59810;48.800;9.086;2022-07-29T02:43:17;97365.41;;;18.76;76.64
71938;BME280;59810;48.800;9.086;2022-07-29T02:45:44;97364.72;;;18.70;76.99
71938;BME280;59810;48.800;9.086;2022-07-29T02:48:13;97368.25;;;18.71;76.91
71938;BME280;59810;48.800;9.086;2022-07-29T02:50:48;97364.53;;;18.67;77.21
71938;BME280;59810;48.800;9.086;2022-07-29T02:53:21;97369.19;;;18.66;77.44
71938;BME280;59810;48.800;9.086;2022-07-29T02:55:59;97372.09;;;18.70;78.15
71938;BME280;59810;48.800;9.086;2022-07-29T03:01:01;97367.56;;;18.65;79.40
71938;BME280;59810;48.800;9.086;2022-07-29T03:03:33;97379.22;;;18.57;80.07
71938;BME280;59810;48.800;9.086;2022-07-29T03:06:01;97382.56;;;18.54;79.38
71938;BME280;59810;48.800;9.086;2022-07-29T03:08:31;97387.63;;;18.47;80.37
71938;BME280;59810;48.800;9.086;2022-07-29T03:10:57;97389.97;;;18.40;80.21
71938;BME280;59810;48.800;9.086;2022-07-29T03:13:23;97381.75;;;18.40;80.35
71938;BME280;59810;48.800;9.086;2022-07-29T03:15:50;97378.72;;;18.41;80.49
71938;BME280;59810;48.800;9.086;2022-07-29T03:18:16;97381.25;;;18.38;80.97
71938;BME280;59810;48.800;9.086;2022-07-29T03:20:42;97377.03;;;18.31;80.44
71938;BME280;59810;48.800;9.086;2022-07-29T03:23:08;97380.97;;;18.25;81.72
71938;BME280;59810;48.800;9.086;2022-07-29T03:25:33;97380.19;;;18.25;81.04
71938;BME280;59810;48.800;9.086;2022-07-29T03:27:59;97384.53;;;18.26;81.04
71938;BME280;59810;48.800;9.086;2022-07-29T03:30:24;97381.19;;;18.29;80.49
71938;BME280;59810;48.800;9.086;2022-07-29T03:32:51;97377.63;;;18.28;80.62
71938;BME280;59810;48.800;9.086;2022-07-29T03:35:16;97386.25;;;18.22;80.89
71938;BME280;59810;48.800;9.086;2022-07-29T03:37:43;97385.94;;;18.23;80.31
71938;BME280;59810;48.800;9.086;2022-07-29T03:40:11;97387.75;;;18.14;81.24
71938;BME280;59810;48.800;9.086;2022-07-29T03:42:40;97393.03;;;18.11;81.21
71938;BME280;59810;48.800;9.086;2022-07-29T03:45:12;97395.16;;;18.00;81.90
71938;BME280;59810;48.800;9.086;2022-07-29T03:47:42;97398.69;;;18.00;81.88
71938;BME280;59810;48.800;9.086;2022-07-29T03:50:12;97397.28;;;18.03;81.51
71938;BME280;59810;48.800;9.086;2022-07-29T03:52:39;97388.69;;;17.96;81.42
71938;BME280;59810;48.800;9.086;2022-07-29T03:55:05;97390.91;;;17.94;81.54
71938;BME280;59810;48.800;9.086;2022-07-29T03:57:32;97387.84;;;17.82;82.25
71938;BME280;59810;48.800;9.086;2022-07-29T03:59:58;97387.25;;;17.85;81.97
71938;BME280;59810;48.800;9.086;2022-07-29T04:02:27;97388.88;;;17.72;83.07
71938;BME280;59810;48.800;9.086;2022-07-29T04:04:52;97381.88;;;17.80;82.36
71938;BME280;59810;48.800;9.086;2022-07-29T04:07:18;97383.50;;;17.81;82.55
71938;BME280;59810;48.800;9.086;2022-07-29T04:09:43;97394.03;;;17.73;83.17
71938;BME280;59810;48.800;9.086;2022-07-29T04:12:09;97386.50;;;17.65;83.50
71938;BME280;59810;48.800;9.086;2022-07-29T04:14:35;97389.22;;;17.65;83.40
71938;BME280;59810;48.800;9.086;2022-07-29T04:17:01;97391.25;;;17.60;83.84
71938;BME280;59810;48.800;9.086;2022-07-29T04:19:27;97390.50;;;17.54;84.00
71938;BME280;59810;48.800;9.086;2022-07-29T04:21:52;97392.66;;;17.57;83.82
71938;BME280;59810;48.800;9.086;2022-07-29T04:24:20;97399.13;;;17.61;83.76
71938;BME280;59810;48.800;9.086;2022-07-29T04:26:46;97396.72;;;17.60;83.60
71938;BME280;59810;48.800;9.086;2022-07-29T04:29:12;97394.50;;;17.62;83.64
71938;BME280;59810;48.800;9.086;2022-07-29T04:31:39;97393.06;;;17.64;83.87
71938;BME280;59810;48.800;9.086;2022-07-29T04:34:07;97388.66;;;17.68;83.74
71938;BME280;59810;48.800;9.086;2022-07-29T04:36:32;97391.38;;;17.68;83.49
71938;BME280;59810;48.800;9.086;2022-07-29T04:38:58;97385.03;;;17.73;83.69
71938;BME280;59810;48.800;9.086;2022-07-29T04:41:27;97390.88;;;17.80;83.07
71938;BME280;59810;48.800;9.086;2022-07-29T04:43:53;97386.63;;;17.88;82.60
71938;BME280;59810;48.800;9.086;2022-07-29T04:46:18;97383.72;;;17.98;82.51
71938;BME280;59810;48.800;9.086;2022-07-29T04:48:47;97386.84;;;18.05;82.26
71938;BME280;59810;48.800;9.086;2022-07-29T04:51:13;97378.66;;;18.05;82.29
71938;BME280;59810;48.800;9.086;2022-07-29T04:53:39;97382.91;;;18.11;81.82
71938;BME280;59810;48.800;9.086;2022-07-29T04:56:04;97384.41;;;18.17;81.74
71938;BME280;59810;48.800;9.086;2022-07-29T04:58:34;97388.69;;;18.23;81.59
71938;BME280;59810;48.800;9.086;2022-07-29T05:01:02;97384.84;;;18.24;81.75
71938;BME280;59810;48.800;9.086;2022-07-29T05:03:30;97382.78;;;18.30;81.36
71938;BME280;59810;48.800;9.086;2022-07-29T05:05:55;97388.56;;;18.28;82.10
71938;BME280;59810;48.800;9.086;2022-07-29T05:08:23;97389.88;;;18.31;81.32
71938;BME280;59810;48.800;9.086;2022-07-29T05:10:51;97387.84;;;18.37;81.00
71938;BME280;59810;48.800;9.086;2022-07-29T05:13:19;97398.03;;;18.45;80.42
71938;BME280;59810;48.800;9.086;2022-07-29T05:15:46;97394.59;;;18.53;80.53
71938;BME280;59810;48.800;9.086;2022-07-29T05:18:12;97395.81;;;18.60;79.53
71938;BME280;59810;48.800;9.086;2022-07-29T05:20:37;97395.91;;;18.69;79.46
71938;BME280;59810;48.800;9.086;2022-07-29T05:23:03;97397.91;;;18.77;79.28
71938;BME280;59810;48.800;9.086;2022-07-29T05:25:31;97397.47;;;18.84;79.71
71938;BME280;59810;48.800;9.086;2022-07-29T05:27:56;97397.06;;;18.90;79.05
71938;BME280;59810;48.800;9.086;2022-07-29T05:30:22;97394.22;;;18.95;79.02
71938;BME280;59810;48.800;9.086;2022-07-29T05:32:48;97396.50;;;19.02;77.95
71938;BME280;59810;48.800;9.086;2022-07-29T05:35:14;97398.50;;;19.10;78.41
71938;BME280;59810;48.800;9.086;2022-07-29T05:37:40;97399.41;;;19.19;78.39
71938;BME280;59810;48.800;9.086;2022-07-29T05:40:08;97401.06;;;19.29;78.05
71938;BME280;59810;48.800;9.086;2022-07-29T05:42:34;97401.28;;;19.41;77.49
71938;BME280;59810;48.800;9.086;2022-07-29T05:45:00;97404.19;;;19.58;76.07
71938;BME280;59810;48.800;9.086;2022-07-29T05:47:26;97399.91;;;19.75;74.28
71938;BME280;59810;48.800;9.086;2022-07-29T05:49:51;97401.63;;;19.93;73.67
71938;BME280;59810;48.800;9.086;2022-07-29T05:52:17;97407.97;;;20.11;72.06
71938;BME280;59810;48.800;9.086;2022-07-29T05:54:45;97405.91;;;20.16;72.04
71938;BME280;59810;48.800;9.086;2022-07-29T05:57:18;97407.88;;;20.25;71.46
71938;BME280;59810;48.800;9.086;2022-07-29T05:59:43;97415.16;;;20.38;70.72
71938;BME280;59810;48.800;9.086;2022-07-29T06:02:08;97414.06;;;20.47;70.95
71938;BME280;59810;48.800;9.086;2022-07-29T06:04:34;97418.28;;;20.54;71.07
71938;BME280;59810;48.800;9.086;2022-07-29T06:07:01;97419.13;;;20.63;70.79
71938;BME280;59810;48.800;9.086;2022-07-29T06:09:27;97426.72;;;20.74;70.73
71938;BME280;59810;48.800;9.086;2022-07-29T06:11:55;97431.41;;;20.91;70.15
71938;BME280;59810;48.800;9.086;2022-07-29T06:14:20;97433.84;;;21.10;69.18
71938;BME280;59810;48.800;9.086;2022-07-29T06:16:46;97435.16;;;21.21;68.41
71938;BME280;59810;48.800;9.086;2022-07-29T06:19:11;97432.56;;;21.33;68.28
71938;BME280;59810;48.800;9.086;2022-07-29T06:21:44;97434.97;;;21.43;68.16
71938;BME280;59810;48.800;9.086;2022-07-29T06:24:13;97442.44;;;21.52;67.04
71938;BME280;59810;48.800;9.086;2022-07-29T06:26:39;97439.66;;;21.60;66.81
71938;BME280;59810;48.800;9.086;2022-07-29T06:29:06;97445.47;;;21.59;66.79
71938;BME280;59810;48.800;9.086;2022-07-29T06:31:33;97442.91;;;21.54;65.96
71938;BME280;59810;48.800;9.086;2022-07-29T06:33:59;97443.22;;;21.52;65.76
71938;BME280;59810;48.800;9.086;2022-07-29T06:36:24;97449.88;;;21.51;65.96
71938;BME280;59810;48.800;9.086;2022-07-29T06:38:49;97449.72;;;21.48;65.49
71938;BME280;59810;48.800;9.086;2022-07-29T06:41:18;97445.19;;;21.34;65.94
71938;BME280;59810;48.800;9.086;2022-07-29T06:43:44;97451.31;;;21.31;66.28
71938;BME280;59810;48.800;9.086;2022-07-29T06:46:13;97454.56;;;21.33;66.42
71938;BME280;59810;48.800;9.086;2022-07-29T06:48:40;97451.47;;;21.35;66.69
71938;BME280;59810;48.800;9.086;2022-07-29T06:51:08;97454.22;;;21.35;65.69
71938;BME280;59810;48.800;9.086;2022-07-29T06:53:36;97451.66;;;21.30;66.66
71938;BME280;59810;48.800;9.086;2022-07-29T06:56:06;97457.78;;;21.35;67.17
71938;BME280;59810;48.800;9.086;2022-07-29T06:58:33;97459.88;;;21.38;66.11
71938;BME280;59810;48.800;9.086;2022-07-29T07:01:03;97461.81;;;21.38;66.41
71938;BME280;59810;48.800;9.086;2022-07-29T07:03:29;97461.19;;;21.50;65.40
71938;BME280;59810;48.800;9.086;2022-07-29T07:05:55;97460.34;;;21.58;65.01
71938;BME280;59810;48.800;9.086;2022-07-29T07:08:23;97457.44;;;21.63;65.22
71938;BME280;59810;48.800;9.086;2022-07-29T07:10:52;97463.56;;;21.68;64.63
71938;BME280;59810;48.800;9.086;2022-07-29T07:13:18;97468.72;;;21.70;64.78
71938;BME280;59810;48.800;9.086;2022-07-29T07:15:44;97465.66;;;21.71;64.86
71938;BME280;59810;48.800;9.086;2022-07-29T07:18:10;97474.38;;;21.73;64.37
71938;BME280;59810;48.800;9.086;2022-07-29T07:20:36;97475.03;;;21.79;63.63
71938;BME280;59810;48.800;9.086;2022-07-29T07:23:03;97477.44;;;21.89;63.21
71938;BME280;59810;48.800;9.086;2022-07-29T07:25:30;97474.53;;;21.86;62.84
71938;BME280;59810;48.800;9.086;2022-07-29T07:27:55;97476.16;;;21.87;63.35
71938;BME280;59810;48.800;9.086;2022-07-29T07:30:21;97475.97;;;21.92;63.02
71938;BME280;59810;48.800;9.086;2022-07-29T07:32:46;97482.28;;;21.92;62.54
71938;BME280;59810;48.800;9.086;2022-07-29T07:35:12;97485.66;;;21.98;62.65
71938;BME280;59810;48.800;9.086;2022-07-29T07:37:38;97485.66;;;22.07;63.27
71938;BME280;59810;48.800;9.086;2022-07-29T07:40:06;97488.41;;;22.15;63.19
71938;BME280;59810;48.800;9.086;2022-07-29T07:42:34;97482.88;;;22.24;62.31
71938;BME280;59810;48.800;9.086;2022-07-29T07:45:00;97485.44;;;22.29;61.79
71938;BME280;59810;48.800;9.086;2022-07-29T07:47:28;97488.00;;;22.34;60.98
71938;BME280;59810;48.800;9.086;2022-07-29T07:49:53;97483.44;;;22.38;61.39
71938;BME280;59810;48.800;9.086;2022-07-29T07:52:20;97482.31;;;22.39;61.85
71938;BME280;59810;48.800;9.086;2022-07-29T07:54:48;97482.63;;;22.46;61.64
71938;BME280;59810;48.800;9.086;2022-07-29T07:57:16;97488.41;;;22.53;61.87
71938;BME280;59810;48.800;9.086;2022-07-29T07:59:44;97492.09;;;22.57;61.76
71938;BME280;59810;48.800;9.086;2022-07-29T08:02:09;97494.53;;;22.59;61.66
71938;BME280;59810;48.800;9.086;2022-07-29T08:04:35;97492.19;;;22.70;61.98
71938;BME280;59810;48.800;9.086;2022-07-29T08:07:01;97494.81;;;22.66;61.55
71938;BME280;59810;48.800;9.086;2022-07-29T08:09:28;97490.09;;;22.66;61.56
71938;BME280;59810;48.800;9.086;2022-07-29T08:11:54;97494.94;;;22.70;61.28
71938;BME280;59810;48.800;9.086;2022-07-29T08:14:20;97488.31;;;22.71;59.99
71938;BME280;59810;48.800;9.086;2022-07-29T08:16:48;97500.78;;;22.68;61.39
71938;BME280;59810;48.800;9.086;2022-07-29T08:19:13;97491.38;;;22.69;58.23
71938;BME280;59810;48.800;9.086;2022-07-29T08:21:41;97485.84;;;22.78;57.10
71938;BME280;59810;48.800;9.086;2022-07-29T08:24:09;97495.25;;;22.77;58.69
71938;BME280;59810;48.800;9.086;2022-07-29T08:26:57;97484.25;;;22.77;59.53
71938;BME280;59810;48.800;9.086;2022-07-29T08:29:23;97489.09;;;22.80;59.29
71938;BME280;59810;48.800;9.086;2022-07-29T08:31:48;97483.06;;;22.86;58.28
71938;BME280;59810;48.800;9.086;2022-07-29T08:34:17;97487.38;;;22.96;58.60
71938;BME280;59810;48.800;9.086;2022-07-29T08:36:42;97488.59;;;23.07;58.26
71938;BME280;59810;48.800;9.086;2022-07-29T08:39:10;97494.28;;;23.11;56.73
71938;BME280;59810;48.800;9.086;2022-07-29T08:41:40;97486.50;;;23.04;56.98
71938;BME280;59810;48.800;9.086;2022-07-29T08:44:08;97490.59;;;22.98;57.43
71938;BME280;59810;48.800;9.086;2022-07-29T08:46:37;97492.41;;;22.94;58.46
71938;BME280;59810;48.800;9.086;2022-07-29T08:49:04;97489.94;;;23.01;57.95
71938;BME280;59810;48.800;9.086;2022-07-29T08:51:30;97490.53;;;23.07;55.86
71938;BME280;59810;48.800;9.086;2022-07-29T08:53:57;97485.66;;;23.12;55.76
71938;BME280;59810;48.800;9.086;2022-07-29T08:56:23;97490.91;;;23.26;55.42
71938;BME280;59810;48.800;9.086;2022-07-29T08:58:49;97494.81;;;23.25;56.56
71938;BME280;59810;48.800;9.086;2022-07-29T09:01:17;97495.53;;;23.34;55.66
71938;BME280;59810;48.800;9.086;2022-07-29T09:03:46;97496.63;;;23.42;55.65
71938;BME280;59810;48.800;9.086;2022-07-29T09:06:14;97499.19;;;23.47;55.44
71938;BME280;59810;48.800;9.086;2022-07-29T09:08:42;97497.81;;;23.53;54.04
71938;BME280;59810;48.800;9.086;2022-07-29T09:11:08;97505.03;;;23.66;53.77
71938;BME280;59810;48.800;9.086;2022-07-29T09:13:34;97497.28;;;23.80;52.80
71938;BME280;59810;48.800;9.086;2022-07-29T09:15:59;97502.34;;;23.78;51.51
71938;BME280;59810;48.800;9.086;2022-07-29T09:18:41;97498.09;;;23.81;52.43
71938;BME280;59810;48.800;9.086;2022-07-29T09:21:13;97495.91;;;23.86;53.06
71938;BME280;59810;48.800;9.086;2022-07-29T09:24:08;97497.22;;;24.01;52.67
71938;BME280;59810;48.800;9.086;2022-07-29T09:26:37;97495.88;;;24.07;52.50
71938;BME280;59810;48.800;9.086;2022-07-29T09:31:37;97494.41;;;24.22;53.52
71938;BME280;59810;48.800;9.086;2022-07-29T09:34:04;97482.91;;;24.20;52.58
71938;BME280;59810;48.800;9.086;2022-07-29T09:36:30;97486.59;;;24.24;52.34
71938;BME280;59810;48.800;9.086;2022-07-29T09:39:00;97486.97;;;24.35;51.74
71938;BME280;59810;48.800;9.086;2022-07-29T09:41:26;97487.34;;;24.45;50.49
71938;BME280;59810;48.800;9.086;2022-07-29T09:43:59;97489.75;;;24.59;50.79
71938;BME280;59810;48.800;9.086;2022-07-29T09:46:30;97476.09;;;24.75;52.09
71938;BME280;59810;48.800;9.086;2022-07-29T09:49:08;97474.47;;;24.98;51.56
71938;BME280;59810;48.800;9.086;2022-07-29T09:51:35;97482.03;;;25.01;51.03
71938;BME280;59810;48.800;9.086;2022-07-29T09:54:00;97478.69;;;24.96;51.50
71938;BME280;59810;48.800;9.086;2022-07-29T09:56:40;97478.34;;;24.97;51.97
71938;BME280;59810;48.800;9.086;2022-07-29T09:59:09;97474.56;;;24.90;51.25
71938;BME280;59810;48.800;9.086;2022-07-29T10:01:36;97474.69;;;24.81;51.94
71938;BME280;59810;48.800;9.086;2022-07-29T10:04:02;97472.97;;;24.64;51.21
71938;BME280;59810;48.800;9.086;2022-07-29T10:06:30;97480.56;;;24.55;52.16
71938;BME280;59810;48.800;9.086;2022-07-29T10:09:09;97485.97;;;24.39;52.30
71938;BME280;59810;48.800;9.086;2022-07-29T10:11:37;97482.06;;;24.40;51.95
71938;BME280;59810;48.800;9.086;2022-07-29T10:14:03;97476.19;;;24.42;51.37
71938;BME280;59810;48.800;9.086;2022-07-29T10:16:31;97488.81;;;24.31;51.91
71938;BME280;59810;48.800;9.086;2022-07-29T10:18:59;97490.72;;;24.18;52.90
71938;BME280;59810;48.800;9.086;2022-07-29T10:21:27;97487.50;;;24.16;51.89
71938;BME280;59810;48.800;9.086;2022-07-29T10:23:54;97478.63;;;24.10;52.74
71938;BME280;59810;48.800;9.086;2022-07-29T10:26:22;97479.91;;;24.13;51.18
71938;BME280;59810;48.800;9.086;2022-07-29T10:28:48;97479.31;;;24.07;50.90
71938;BME280;59810;48.800;9.086;2022-07-29T10:31:22;97485.16;;;24.06;50.24
71938;BME280;59810;48.800;9.086;2022-07-29T10:34:04;97479.28;;;23.95;50.29
71938;BME280;59810;48.800;9.086;2022-07-29T10:44:41;97483.72;;;23.75;50.90
71938;BME280;59810;48.800;9.086;2022-07-29T10:47:08;97483.38;;;23.77;49.88
71938;BME280;59810;48.800;9.086;2022-07-29T10:49:33;97480.16;;;23.75;49.77
71938;BME280;59810;48.800;9.086;2022-07-29T10:52:04;97481.47;;;23.69;49.32
71938;BME280;59810;48.800;9.086;2022-07-29T11:05:09;97480.28;;;23.16;54.73
71938;BME280;59810;48.800;9.086;2022-07-29T11:07:36;97487.78;;;23.07;56.15
71938;BME280;59810;48.800;9.086;2022-07-29T11:15:05;97494.28;;;22.73;59.03
71938;BME280;59810;48.800;9.086;2022-07-29T11:23:26;97494.25;;;22.43;60.28
71938;BME280;59810;48.800;9.086;2022-07-29T11:31:40;97504.72;;;22.58;60.86
71938;BME280;59810;48.800;9.086;2022-07-29T11:39:31;97494.38;;;22.93;58.97
71938;BME280;59810;48.800;9.086;2022-07-29T11:47:33;97490.56;;;23.69;56.36
71938;BME280;59810;48.800;9.086;2022-07-29T11:50:00;97491.09;;;23.83;55.69
71938;BME280;59810;48.800;9.086;2022-07-29T11:52:43;97494.22;;;23.94;56.01
71938;BME280;59810;48.800;9.086;2022-07-29T11:55:11;97497.34;;;24.05;55.81
71938;BME280;59810;48.800;9.086;2022-07-29T11:57:45;97483.94;;;24.15;55.95
71938;BME280;59810;48.800;9.086;2022-07-29T12:00:12;97482.25;;;24.35;52.94
71938;BME280;59810;48.800;9.086;2022-07-29T12:02:45;97479.63;;;24.51;52.78
71938;BME280;59810;48.800;9.086;2022-07-29T12:05:11;97484.69;;;24.61;52.43
71938;BME280;59810;48.800;9.086;2022-07-29T12:07:39;97475.03;;;24.67;51.63
71938;BME280;59810;48.800;9.086;2022-07-29T12:10:05;97476.72;;;24.96;50.66
71938;BME280;59810;48.800;9.086;2022-07-29T12:12:32;97473.41;;;25.15;51.74
71938;BME280;59810;48.800;9.086;2022-07-29T12:14:57;97472.56;;;25.27;52.17
71938;BME280;59810;48.800;9.086;2022-07-29T12:17:33;97477.22;;;24.98;50.27
71938;BME280;59810;48.800;9.086;2022-07-29T12:20:03;97480.78;;;24.62;53.25
71938;BME280;59810;48.800;9.086;2022-07-29T12:22:32;97484.66;;;24.37;54.83
71938;BME280;59810;48.800;9.086;2022-07-29T12:25:12;97479.81;;;24.21;57.44
71938;BME280;59810;48.800;9.086;2022-07-29T12:27:45;97477.31;;;23.96;59.01
71938;BME280;59810;48.800;9.086;2022-07-29T12:30:15;97480.66;;;23.89;59.31
71938;BME280;59810;48.800;9.086;2022-07-29T12:32:43;97489.38;;;23.58;59.15
71938;BME280;59810;48.800;9.086;2022-07-29T12:35:17;97483.41;;;23.56;59.41
71938;BME280;59810;48.800;9.086;2022-07-29T12:37:45;97484.78;;;23.41;59.60
71938;BME280;59810;48.800;9.086;2022-07-29T12:40:14;97487.59;;;23.33;60.05
71938;BME280;59810;48.800;9.086;2022-07-29T12:43:04;97486.94;;;23.15;60.27
71938;BME280;59810;48.800;9.086;2022-07-29T12:45:30;97481.66;;;23.01;59.46
71938;BME280;59810;48.800;9.086;2022-07-29T12:47:56;97475.63;;;22.87;59.66
71938;BME280;59810;48.800;9.086;2022-07-29T12:50:21;97479.72;;;22.81;58.60
71938;BME280;59810;48.800;9.086;2022-07-29T12:52:46;97481.50;;;22.77;59.83
71938;BME280;59810;48.800;9.086;2022-07-29T12:55:12;97484.41;;;22.72;58.97
71938;BME280;59810;48.800;9.086;2022-07-29T12:57:48;97485.06;;;22.68;58.44
71938;BME280;59810;48.800;9.086;2022-07-29T13:00:15;97491.25;;;22.65;58.74
71938;BME280;59810;48.800;9.086;2022-07-29T13:02:42;97490.63;;;22.60;56.82
71938;BME280;59810;48.800;9.086;2022-07-29T13:05:09;97493.72;;;22.58;56.36
71938;BME280;59810;48.800;9.086;2022-07-29T13:07:36;97497.94;;;22.56;57.72
71938;BME280;59810;48.800;9.086;2022-07-29T13:10:15;97500.41;;;22.49;58.47
71938;BME280;59810;48.800;9.086;2022-07-29T13:15:28;97501.09;;;22.37;57.06
71938;BME280;59810;48.800;9.086;2022-07-29T13:17:53;97503.84;;;22.37;58.17
71938;BME280;59810;48.800;9.086;2022-07-29T13:20:23;97505.59;;;22.42;56.99
71938;BME280;59810;48.800;9.086;2022-07-29T13:22:49;97509.16;;;22.42;59.28
71938;BME280;59810;48.800;9.086;2022-07-29T13:25:26;97505.63;;;22.33;60.38
71938;BME280;59810;48.800;9.086;2022-07-29T13:27:52;97502.97;;;22.16;61.79
71938;BME280;59810;48.800;9.086;2022-07-29T13:30:20;97515.56;;;22.08;63.28
71938;BME280;59810;48.800;9.086;2022-07-29T13:32:46;97510.72;;;21.96;63.27
71938;BME280;59810;48.800;9.086;2022-07-29T13:35:12;97501.34;;;22.06;62.42
71938;BME280;59810;48.800;9.086;2022-07-29T13:37:38;97490.44;;;22.27;62.53
71938;BME280;59810;48.800;9.086;2022-07-29T13:40:07;97492.34;;;22.82;60.63
71938;BME280;59810;48.800;9.086;2022-07-29T13:42:33;97487.41;;;23.38;57.04
71938;BME280;59810;48.800;9.086;2022-07-29T13:44:59;97489.69;;;23.77;56.50
71938;BME280;59810;48.800;9.086;2022-07-29T13:47:25;97484.06;;;24.19;56.01
71938;BME280;59810;48.800;9.086;2022-07-29T13:49:51;97482.16;;;24.56;55.77
71938;BME280;59810;48.800;9.086;2022-07-29T13:52:21;97491.69;;;24.71;52.82
71938;BME280;59810;48.800;9.086;2022-07-29T13:54:47;97488.13;;;24.70;53.27
71938;BME280;59810;48.800;9.086;2022-07-29T13:57:13;97486.19;;;24.71;52.39
71938;BME280;59810;48.800;9.086;2022-07-29T13:59:42;97479.75;;;24.79;51.62
71938;BME280;59810;48.800;9.086;2022-07-29T14:02:11;97476.53;;;24.77;50.61